Time;durP1;ratioP1;P1;durP2;ratioP2;P2;SDS_P1;SDS_P2;PMS_P1;PMS_P2;Temp;Humidity;BMP_temperature;BMP_pressure;BME280_temperature;BME280_humidity;BME280_pressure;Samples;Min_cycle;Max_cycle;Signal;HPM_P1;HPM_P2
2022/09/28 00:02:05;;;;;;;2.70;1.60;;;;;;;;;;5012476;28;20060;-78
2022/09/28 00:04:32;;;;;;;4.10;1.30;;;;;;;;;;5028564;28;20144;-78
2022/09/28 00:06:58;;;;;;;4.35;1.42;;;;;;;;;;5011371;28;20060;-78
2022/09/28 00:09:25;;;;;;;3.17;1.67;;;;;;;;;;5029438;28;20049;-80
2022/09/28 00:11:56;;;;;;;5.53;1.98;;;;;;;;;;5011144;28;20076;-78
2022/09/28 00:14:23;;;;;;;5.13;2.35;;;;;;;;;;5029924;28;20057;-78
2022/09/28 00:16:49;;;;;;;4.72;2.13;;;;;;;;;;5028923;28;20072;-78
2022/09/28 00:19:16;;;;;;;3.33;2.33;;;;;;;;;;5029669;28;20107;-77
2022/09/28 00:21:43;;;;;;;3.88;2.50;;;;;;;;;;5031443;28;20503;-78
2022/09/28 00:24:14;;;;;;;3.90;2.55;;;;;;;;;;5034326;28;20054;-77
2022/09/28 00:26:42;;;;;;;4.53;2.63;;;;;;;;;;5033906;28;20147;-77
2022/09/28 00:29:17;;;;;;;4.50;3.10;;;;;;;;;;5038318;28;20102;-77
2022/09/28 00:31:44;;;;;;;5.00;2.30;;;;;;;;;;5045051;28;20119;-78
2022/09/28 00:34:11;;;;;;;5.18;2.63;;;;;;;;;;5040330;28;20052;-77
2022/09/28 00:36:37;;;;;;;7.63;2.50;;;;;;;;;;5033658;28;20058;-77
2022/09/28 00:39:05;;;;;;;5.03;2.42;;;;;;;;;;5034146;28;20498;-78
2022/09/28 00:41:31;;;;;;;5.13;2.45;;;;;;;;;;5033792;28;20059;-79
2022/09/28 00:44:16;;;;;;;3.92;2.33;;;;;;;;;;5032975;28;20053;-78
2022/09/28 00:46:43;;;;;;;3.70;2.05;;;;;;;;;;5032143;28;20128;-78
2022/09/28 00:49:13;;;;;;;3.10;2.28;;;;;;;;;;5033835;28;20064;-79
2022/09/28 00:51:41;;;;;;;4.43;2.00;;;;;;;;;;5036050;28;20260;-79
2022/09/28 00:54:08;;;;;;;7.15;2.20;;;;;;;;;;5036030;28;20041;-79
2022/09/28 00:56:36;;;;;;;2.88;2.33;;;;;;;;;;5033911;28;20136;-79
2022/09/28 00:59:05;;;;;;;4.78;2.70;;;;;;;;;;5018760;28;20214;-77
2022/09/28 01:01:32;;;;;;;4.47;1.95;;;;;;;;;;5035365;28;20049;-79
2022/09/28 01:04:00;;;;;;;6.85;1.70;;;;;;;;;;5030842;28;20054;-77
2022/09/28 01:06:29;;;;;;;3.85;1.88;;;;;;;;;;5032952;28;20663;-77
2022/09/28 01:08:57;;;;;;;3.15;1.83;;;;;;;;;;5033757;28;20053;-78
2022/09/28 01:11:24;;;;;;;2.97;1.92;;;;;;;;;;5015407;28;20051;-78
2022/09/28 01:13:52;;;;;;;4.70;1.70;;;;;;;;;;5033518;28;20053;-78
2022/09/28 01:16:26;;;;;;;2.47;1.60;;;;;;;;;;5033734;28;20068;-78
2022/09/28 01:18:58;;;;;;;3.80;1.70;;;;;;;;;;5030195;28;20049;-78
2022/09/28 01:21:25;;;;;;;3.30;1.60;;;;;;;;;;5033971;28;20561;-77
2022/09/28 01:24:10;;;;;;;3.53;1.67;;;;;;;;;;5033246;28;20077;-78
2022/09/28 01:26:57;;;;;;;3.72;1.80;;;;;;;;;;5031803;28;20061;-76
2022/09/28 01:29:26;;;;;;;2.75;1.65;;;;;;;;;;5016076;28;20053;-79
2022/09/28 01:31:58;;;;;;;2.08;1.40;;;;;;;;;;5018614;28;20049;-79
2022/09/28 01:34:28;;;;;;;5.10;2.13;;;;;;;;;;5032771;28;20413;-78
2022/09/28 01:36:55;;;;;;;4.88;1.60;;;;;;;;;;5033657;28;20092;-79
2022/09/28 01:39:31;;;;;;;3.15;2.05;;;;;;;;;;5017049;28;20049;-79
2022/09/28 01:41:57;;;;;;;;;;;;;;;;;;5014841;28;20049;-78
2022/09/28 01:44:24;;;;;;;2.70;1.80;;;;;;;;;;5033285;28;19927;-80
2022/09/28 01:46:51;;;;;;;3.72;1.80;;;;;;;;;;5015241;28;20060;-80
2022/09/28 01:49:30;;;;;;;4.10;2.38;;;;;;;;;;5033035;28;20099;-80
2022/09/28 01:51:59;;;;;;;4.68;2.08;;;;;;;;;;5037680;28;20046;-79
2022/09/28 01:54:31;;;;;;;4.53;2.10;;;;;;;;;;5034742;28;20055;-80
2022/09/28 01:57:09;;;;;;;4.70;1.83;;;;;;;;;;5014862;28;20140;-80
2022/09/28 01:59:38;;;;;;;3.13;1.80;;;;;;;;;;5052553;28;20041;-78
2022/09/28 02:02:08;;;;;;;3.28;2.13;;;;;;;;;;5052483;28;20109;-79
2022/09/28 02:04:38;;;;;;;2.70;1.90;;;;;;;;;;5051978;28;20083;-79
2022/09/28 02:07:31;;;;;;;6.82;1.80;;;;;;;;;;5051863;28;20045;-79
2022/09/28 02:09:59;;;;;;;3.50;2.33;;;;;;;;;;5048467;28;20140;-79
2022/09/28 02:12:34;;;;;;;6.18;2.10;;;;;;;;;;5035408;28;20049;-79
2022/09/28 02:15:05;;;;;;;3.17;2.00;;;;;;;;;;5053231;28;20088;-78
2022/09/28 02:17:31;;;;;;;3.67;2.15;;;;;;;;;;5052195;28;20049;-79
2022/09/28 02:19:57;;;;;;;6.63;2.30;;;;;;;;;;5051202;28;20051;-78
2022/09/28 02:22:27;;;;;;;3.97;2.25;;;;;;;;;;5052605;28;20044;-78
2022/09/28 02:25:12;;;;;;;5.30;2.28;;;;;;;;;;5034836;28;20059;-78
2022/09/28 02:27:38;;;;;;;4.13;2.35;;;;;;;;;;5050143;28;20053;-78
2022/09/28 02:30:06;;;;;;;3.03;2.40;;;;;;;;;;5052233;28;20079;-78
2022/09/28 02:32:33;;;;;;;5.70;2.47;;;;;;;;;;5052228;28;20053;-78
2022/09/28 02:35:00;;;;;;;3.42;2.65;;;;;;;;;;5050895;28;20045;-79
2022/09/28 02:37:26;;;;;;;6.20;2.97;;;;;;;;;;5050482;28;20051;-78
2022/09/28 02:39:53;;;;;;;5.18;2.92;;;;;;;;;;5051928;28;20052;-78
2022/09/28 02:42:19;;;;;;;5.18;3.20;;;;;;;;;;5038023;28;20042;-77
2022/09/28 02:44:46;;;;;;;5.07;2.80;;;;;;;;;;5032563;28;20061;-78
2022/09/28 02:47:12;;;;;;;5.15;2.92;;;;;;;;;;5030902;28;20075;-78
2022/09/28 02:49:48;;;;;;;7.30;2.85;;;;;;;;;;5029525;28;20049;-78
2022/09/28 02:52:32;;;;;;;6.05;2.80;;;;;;;;;;5031457;28;20053;-78
2022/09/28 02:54:59;;;;;;;6.18;3.03;;;;;;;;;;5031998;28;20042;-79
2022/09/28 02:57:48;;;;;;;4.85;3.08;;;;;;;;;;5031608;28;20113;-78
2022/09/28 03:00:18;;;;;;;5.32;3.00;;;;;;;;;;5062984;28;20029;-78
2022/09/28 03:02:51;;;;;;;4.75;3.30;;;;;;;;;;5071229;28;20077;-78
2022/09/28 03:05:17;;;;;;;4.15;3.22;;;;;;;;;;5069968;28;20060;-79
2022/09/28 03:07:46;;;;;;;5.60;3.50;;;;;;;;;;5070069;28;20100;-79
2022/09/28 03:10:13;;;;;;;8.35;3.70;;;;;;;;;;5052876;28;20424;-79
2022/09/28 03:12:40;;;;;;;6.70;4.10;;;;;;;;;;5051174;28;20121;-79
2022/09/28 03:15:07;;;;;;;4.65;3.28;;;;;;;;;;5035110;28;20053;-79
2022/09/28 03:17:33;;;;;;;4.38;3.28;;;;;;;;;;5051432;28;20049;-79
2022/09/28 03:19:59;;;;;;;5.47;2.65;;;;;;;;;;5050747;28;20080;-79
2022/09/28 03:22:26;;;;;;;5.05;2.92;;;;;;;;;;5051752;28;20048;-79
2022/09/28 03:24:52;;;;;;;5.07;2.55;;;;;;;;;;5051924;28;20056;-79
2022/09/28 03:27:19;;;;;;;6.03;2.53;;;;;;;;;;5050613;28;20051;-78
2022/09/28 03:29:45;;;;;;;3.33;2.40;;;;;;;;;;5053041;28;20057;-79
2022/09/28 03:32:11;;;;;;;4.78;2.50;;;;;;;;;;5045726;28;20049;-79
2022/09/28 03:34:38;;;;;;;4.55;2.78;;;;;;;;;;5024135;28;20042;-79
2022/09/28 03:37:04;;;;;;;4.70;2.40;;;;;;;;;;5012954;28;20410;-79
2022/09/28 03:39:30;;;;;;;5.43;2.35;;;;;;;;;;5013392;28;20046;-77
2022/09/28 03:41:58;;;;;;;4.22;2.63;;;;;;;;;;5011204;28;20056;-78
2022/09/28 03:44:25;;;;;;;3.10;2.20;;;;;;;;;;5012609;28;20136;-78
2022/09/28 03:46:53;;;;;;;8.55;2.30;;;;;;;;;;5019533;28;20127;-78
2022/09/28 03:49:19;;;;;;;4.10;2.55;;;;;;;;;;5030368;28;20144;-77
2022/09/28 03:51:46;;;;;;;4.20;2.63;;;;;;;;;;5018891;28;20046;-77
2022/09/28 03:54:12;;;;;;;6.75;2.72;;;;;;;;;;5023505;28;20121;-77
2022/09/28 03:56:39;;;;;;;4.90;2.83;;;;;;;;;;5039072;28;20433;-78
2022/09/28 03:59:05;;;;;;;5.18;3.22;;;;;;;;;;5032459;28;20048;-80
2022/09/28 04:01:32;;;;;;;5.05;3.20;;;;;;;;;;5030828;28;20041;-78
2022/09/28 04:03:58;;;;;;;4.35;3.05;;;;;;;;;;5029435;28;20060;-80
2022/09/28 04:06:25;;;;;;;4.50;2.72;;;;;;;;;;5035229;28;20184;-78
2022/09/28 04:08:52;;;;;;;4.47;3.05;;;;;;;;;;5035462;28;20176;-79
2022/09/28 04:11:18;;;;;;;4.90;3.50;;;;;;;;;;5035944;28;20204;-78
2022/09/28 04:13:46;;;;;;;7.32;4.28;;;;;;;;;;5035553;28;20077;-78
2022/09/28 04:16:14;;;;;;;5.22;3.63;;;;;;;;;;5035870;28;20042;-79
2022/09/28 04:18:41;;;;;;;6.93;3.83;;;;;;;;;;5033152;28;20056;-79
2022/09/28 04:21:10;;;;;;;5.00;3.92;;;;;;;;;;5035915;28;20141;-79
2022/09/28 04:23:38;;;;;;;5.28;3.60;;;;;;;;;;5033854;28;20045;-75
2022/09/28 04:26:05;;;;;;;9.43;4.05;;;;;;;;;;5034820;28;20515;-79
2022/09/28 04:31:18;;;;;;;7.47;3.70;;;;;;;;;;5034258;28;20501;-78
2022/09/28 04:33:44;;;;;;;6.75;3.90;;;;;;;;;;5034470;28;20347;-79
2022/09/28 04:36:11;;;;;;;6.25;3.67;;;;;;;;;;5035063;28;20060;-79
2022/09/28 04:38:38;;;;;;;6.10;3.67;;;;;;;;;;5035053;28;20045;-78
2022/09/28 04:41:18;;;;;;;8.00;3.92;;;;;;;;;;5035295;28;20045;-79
2022/09/28 04:43:45;;;;;;;8.65;3.50;;;;;;;;;;5034233;28;20339;-78
2022/09/28 04:46:12;;;;;;;6.03;3.95;;;;;;;;;;5035019;28;20054;-79
2022/09/28 04:48:38;;;;;;;7.22;4.05;;;;;;;;;;5032093;28;20045;-78
2022/09/28 04:51:05;;;;;;;7.82;4.03;;;;;;;;;;5034838;28;20049;-78
2022/09/28 04:53:31;;;;;;;8.77;4.10;;;;;;;;;;5036079;28;20064;-77
2022/09/28 04:56:10;;;;;;;6.78;3.45;;;;;;;;;;5035366;28;20096;-79
2022/09/28 04:58:37;;;;;;;9.93;4.70;;;;;;;;;;5016607;28;20049;-79
2022/09/28 05:01:05;;;;;;;6.28;4.00;;;;;;;;;;5034972;28;20049;-79
2022/09/28 05:03:32;;;;;;;6.53;4.22;;;;;;;;;;5015969;28;20088;-78
2022/09/28 05:05:59;;;;;;;6.82;4.40;;;;;;;;;;5038189;28;20055;-78
2022/09/28 05:08:25;;;;;;;8.82;4.63;;;;;;;;;;5035004;28;20440;-79
2022/09/28 05:10:58;;;;;;;5.68;3.97;;;;;;;;;;5035099;28;20063;-78
2022/09/28 05:13:25;;;;;;;6.40;3.92;;;;;;;;;;5034536;28;20063;-78
2022/09/28 05:15:52;;;;;;;7.18;4.22;;;;;;;;;;5034834;28;20136;-79
2022/09/28 05:18:24;;;;;;;8.93;3.95;;;;;;;;;;5032950;28;20103;-79
2022/09/28 05:20:51;;;;;;;7.50;4.03;;;;;;;;;;5035438;28;20065;-80
2022/09/28 05:23:17;;;;;;;7.43;3.85;;;;;;;;;;5017228;28;20060;-79
2022/09/28 05:25:47;;;;;;;8.15;4.00;;;;;;;;;;5015398;28;20057;-79
2022/09/28 05:28:13;;;;;;;8.27;4.07;;;;;;;;;;5010357;28;20514;-79
2022/09/28 05:30:39;;;;;;;8.38;3.78;;;;;;;;;;5024693;28;20045;-78
2022/09/28 05:33:06;;;;;;;6.13;3.67;;;;;;;;;;5022748;28;20064;-79
2022/09/28 05:35:32;;;;;;;4.93;3.47;;;;;;;;;;5024404;28;20067;-78
2022/09/28 05:38:05;;;;;;;8.88;3.60;;;;;;;;;;5019477;28;20048;-79
2022/09/28 05:40:32;;;;;;;12.98;3.58;;;;;;;;;;5004060;28;20062;-79
2022/09/28 05:42:59;;;;;;;6.43;3.60;;;;;;;;;;5020509;28;20061;-78
2022/09/28 05:45:27;;;;;;;5.10;3.40;;;;;;;;;;5023612;28;20242;-80
2022/09/28 05:47:53;;;;;;;12.18;3.80;;;;;;;;;;5022065;28;20060;-79
2022/09/28 05:50:19;;;;;;;5.88;3.65;;;;;;;;;;5023275;28;20088;-78
2022/09/28 05:52:46;;;;;;;6.63;3.80;;;;;;;;;;5020930;28;20049;-80
2022/09/28 05:55:12;;;;;;;8.13;3.70;;;;;;;;;;5025508;28;20049;-79
2022/09/28 05:57:39;;;;;;;5.05;3.45;;;;;;;;;;5021732;28;20052;-78
2022/09/28 06:00:08;;;;;;;5.43;3.55;;;;;;;;;;5036075;28;20163;-77
2022/09/28 06:02:34;;;;;;;8.85;3.75;;;;;;;;;;5051976;28;20056;-79
2022/09/28 06:05:00;;;;;;;9.00;3.38;;;;;;;;;;5051730;28;20041;-79
2022/09/28 06:07:27;;;;;;;5.13;3.50;;;;;;;;;;5052283;28;20045;-78
2022/09/28 06:09:53;;;;;;;5.93;3.63;;;;;;;;;;5053287;28;20052;-78
2022/09/28 06:12:20;;;;;;;5.95;3.47;;;;;;;;;;5051500;28;20045;-79
2022/09/28 06:14:47;;;;;;;8.40;3.40;;;;;;;;;;5053941;28;20045;-80
2022/09/28 06:17:13;;;;;;;6.07;3.17;;;;;;;;;;5053126;28;20048;-79
2022/09/28 06:19:40;;;;;;;8.73;3.00;;;;;;;;;;5051820;28;20049;-78
2022/09/28 06:22:06;;;;;;;9.75;2.67;;;;;;;;;;5055486;28;20041;-80
2022/09/28 06:24:33;;;;;;;4.70;2.35;;;;;;;;;;5037081;28;20047;-79
2022/09/28 06:26:59;;;;;;;8.07;2.70;;;;;;;;;;5053257;28;20064;-79
2022/09/28 06:29:25;;;;;;;4.25;2.40;;;;;;;;;;5035953;28;20060;-80
2022/09/28 06:31:52;;;;;;;7.15;2.30;;;;;;;;;;5054559;28;20049;-79
2022/09/28 06:34:20;;;;;;;8.77;2.60;;;;;;;;;;5052619;28;20069;-80
2022/09/28 06:36:47;;;;;;;5.82;2.20;;;;;;;;;;5034793;28;20163;-80
2022/09/28 06:39:14;;;;;;;4.60;2.40;;;;;;;;;;5035982;28;20256;-80
2022/09/28 06:41:40;;;;;;;6.65;2.45;;;;;;;;;;5035032;28;20262;-80
2022/09/28 06:44:07;;;;;;;7.68;2.47;;;;;;;;;;5052768;28;20055;-80
2022/09/28 06:46:34;;;;;;;6.05;2.47;;;;;;;;;;5052405;28;20417;-80
2022/09/28 06:49:03;;;;;;;11.57;2.67;;;;;;;;;;5034297;28;20056;-81
2022/09/28 06:51:29;;;;;;;10.32;3.08;;;;;;;;;;5034528;28;20063;-79
2022/09/28 06:53:58;;;;;;;4.65;2.72;;;;;;;;;;5054005;28;20037;-80
2022/09/28 06:56:24;;;;;;;9.10;2.80;;;;;;;;;;5052845;28;20041;-80
2022/09/28 06:58:57;;;;;;;7.18;3.28;;;;;;;;;;5053792;28;20045;-79
2022/09/28 07:01:24;;;;;;;5.60;3.65;;;;;;;;;;5053017;28;20425;-80
2022/09/28 07:03:50;;;;;;;9.35;3.78;;;;;;;;;;5055434;28;20076;-80
2022/09/28 07:06:22;;;;;;;9.65;3.72;;;;;;;;;;5051636;28;20523;-80
2022/09/28 07:08:49;;;;;;;8.35;3.75;;;;;;;;;;5053056;28;20087;-80
2022/09/28 07:11:25;;;;;;;5.75;3.53;;;;;;;;;;5042192;28;20052;-81
2022/09/28 07:13:52;;;;;;;10.88;4.10;;;;;;;;;;5054731;28;20057;-80
2022/09/28 07:16:18;;;;;;;9.75;3.90;;;;;;;;;;5070384;28;20032;-79
2022/09/28 07:18:51;;;;;;;6.68;4.22;;;;;;;;;;5069571;28;20113;-79
2022/09/28 07:21:18;;;;;;;14.77;4.10;;;;;;;;;;5060352;28;20061;-80
2022/09/28 07:23:54;;;;;;;6.50;4.10;;;;;;;;;;5041883;28;20064;-79
2022/09/28 07:26:21;;;;;;;9.73;3.95;;;;;;;;;;5053026;28;20417;-79
2022/09/28 07:28:49;;;;;;;7.55;3.80;;;;;;;;;;5031658;28;20515;-79
2022/09/28 07:31:16;;;;;;;5.07;3.63;;;;;;;;;;5049712;28;20082;-79
2022/09/28 07:33:42;;;;;;;7.65;3.88;;;;;;;;;;5048814;28;20104;-79
2022/09/28 07:36:09;;;;;;;5.35;3.47;;;;;;;;;;5050307;28;20498;-80
2022/09/28 07:38:37;;;;;;;8.00;4.10;;;;;;;;;;5050211;28;20481;-79
2022/09/28 07:41:13;;;;;;;7.43;4.43;;;;;;;;;;5051092;28;20049;-79
2022/09/28 07:43:40;;;;;;;9.93;4.53;;;;;;;;;;5049642;28;20041;-79
2022/09/28 07:46:13;;;;;;;9.55;4.70;;;;;;;;;;5050463;28;20547;-79
2022/09/28 07:48:40;;;;;;;10.32;5.40;;;;;;;;;;5031293;28;20477;-79
2022/09/28 07:51:08;;;;;;;10.77;5.88;;;;;;;;;;5032986;28;20489;-80
2022/09/28 07:53:34;;;;;;;9.75;5.38;;;;;;;;;;5034890;28;20064;-79
2022/09/28 07:56:05;;;;;;;8.68;5.38;;;;;;;;;;5052566;28;20052;-79
2022/09/28 07:58:31;;;;;;;13.07;6.07;;;;;;;;;;5039427;28;20063;-79
2022/09/28 08:00:59;;;;;;;13.77;5.43;;;;;;;;;;5013722;28;20414;-78
2022/09/28 08:03:26;;;;;;;10.90;5.80;;;;;;;;;;5029497;28;20076;-80
2022/09/28 08:05:59;;;;;;;9.43;5.32;;;;;;;;;;5032029;28;20057;-80
2022/09/28 08:08:27;;;;;;;6.25;4.80;;;;;;;;;;5030511;28;20484;-81
2022/09/28 08:10:55;;;;;;;9.18;5.03;;;;;;;;;;5031981;28;20081;-81
2022/09/28 08:13:26;;;;;;;9.95;4.88;;;;;;;;;;5015275;28;20076;-79
2022/09/28 08:15:53;;;;;;;12.40;5.10;;;;;;;;;;5034652;28;20056;-79
2022/09/28 08:18:19;;;;;;;7.25;5.10;;;;;;;;;;5032363;28;20080;-78
2022/09/28 08:23:31;;;;;;;6.68;4.63;;;;;;;;;;5033962;28;20053;-79
2022/09/28 08:25:59;;;;;;;8.30;4.25;;;;;;;;;;5045203;28;20120;-79
2022/09/28 08:28:25;;;;;;;8.93;3.75;;;;;;;;;;5045023;28;20049;-80
2022/09/28 08:30:53;;;;;;;8.07;2.58;;;;;;;;;;5046969;28;20140;-79
2022/09/28 08:33:22;;;;;;;6.07;2.67;;;;;;;;;;5040268;28;20088;-80
2022/09/28 08:35:56;;;;;;;3.90;2.25;;;;;;;;;;5013670;28;20060;-79
2022/09/28 08:38:26;;;;;;;4.50;2.30;;;;;;;;;;5030107;28;20117;-80
2022/09/28 08:41:10;;;;;;;3.80;1.77;;;;;;;;;;5031309;28;20412;-78
2022/09/28 08:43:44;;;;;;;4.25;1.70;;;;;;;;;;5034778;28;20050;-79
2022/09/28 08:46:12;;;;;;;3.08;1.60;;;;;;;;;;5031920;28;20049;-80
2022/09/28 08:48:52;;;;;;;11.32;2.33;;;;;;;;;;5028588;28;20065;-79
2022/09/28 08:52:12;;;;;;;3.03;1.70;;;;;;;;;;5033370;28;20053;-80
2022/09/28 08:54:44;;;;;;;4.20;1.48;;;;;;;;;;4986553;28;20088;-79
2022/09/28 08:57:11;;;;;;;5.53;1.83;;;;;;;;;;5034360;28;20417;-79
2022/09/28 08:59:44;;;;;;;4.90;1.50;;;;;;;;;;5053198;28;20631;-79
2022/09/28 09:02:15;;;;;;;4.82;1.92;;;;;;;;;;5054534;28;20440;-81
2022/09/28 09:04:41;;;;;;;4.82;1.65;;;;;;;;;;5052773;28;20088;-79
2022/09/28 09:07:14;;;;;;;4.97;1.80;;;;;;;;;;5053000;28;20075;-79
2022/09/28 09:09:59;;;;;;;4.95;1.70;;;;;;;;;;5053520;28;20053;-78
2022/09/28 09:12:44;;;;;;;4.05;1.90;;;;;;;;;;5052783;28;20053;-78
2022/09/28 09:15:13;;;;;;;4.10;1.70;;;;;;;;;;5054378;28;20052;-80
2022/09/28 09:17:48;;;;;;;4.10;2.00;;;;;;;;;;5034925;28;20049;-79
2022/09/28 09:20:15;;;;;;;;;;;;;;;;;;5036138;28;20053;-79
2022/09/28 09:23:04;;;;;;;4.93;1.90;;;;;;;;;;5036400;28;20414;-78
2022/09/28 09:25:33;;;;;;;3.97;2.17;;;;;;;;;;5055401;28;20049;-79
2022/09/28 09:28:22;;;;;;;5.03;1.90;;;;;;;;;;5052853;28;20137;-79
2022/09/28 09:31:14;;;;;;;4.10;1.85;;;;;;;;;;5054621;28;20049;-80
2022/09/28 09:34:04;;;;;;;4.72;1.67;;;;;;;;;;5035943;28;20143;-79
2022/09/28 09:36:49;;;;;;;6.00;1.98;;;;;;;;;;5051870;28;20493;-78
2022/09/28 09:39:24;;;;;;;4.18;1.70;;;;;;;;;;5053862;28;20068;-78
2022/09/28 09:41:54;;;;;;;1.85;1.35;;;;;;;;;;5053362;28;20144;-78
2022/09/28 09:44:20;;;;;;;1.83;1.20;;;;;;;;;;5053094;28;20053;-78
2022/09/28 09:46:50;;;;;;;2.13;1.00;;;;;;;;;;5052258;28;20049;-79
2022/09/28 09:49:22;;;;;;;2.60;1.30;;;;;;;;;;5052389;28;20049;-80
2022/09/28 09:51:54;;;;;;;7.90;1.10;;;;;;;;;;5036058;28;20080;-79
2022/09/28 09:54:29;;;;;;;4.13;0.77;;;;;;;;;;5057903;28;20515;-79
2022/09/28 09:57:02;;;;;;;1.60;1.10;;;;;;;;;;5054808;28;20049;-79
2022/09/28 09:59:34;;;;;;;2.00;1.23;;;;;;;;;;5034498;28;20049;-78
2022/09/28 10:02:01;;;;;;;2.30;1.40;;;;;;;;;;5032909;28;20052;-80
2022/09/28 10:04:36;;;;;;;4.40;1.80;;;;;;;;;;5032913;28;20045;-78
2022/09/28 10:07:04;;;;;;;3.10;1.90;;;;;;;;;;5032986;28;20057;-79
2022/09/28 10:09:33;;;;;;;4.35;2.50;;;;;;;;;;5033225;28;20640;-79
2022/09/28 10:12:00;;;;;;;3.22;2.58;;;;;;;;;;5031252;28;20049;-79
2022/09/28 10:14:27;;;;;;;3.40;2.20;;;;;;;;;;5031909;28;20045;-80
2022/09/28 10:16:54;;;;;;;3.15;1.73;;;;;;;;;;5031497;28;20064;-78
2022/09/28 10:19:26;;;;;;;4.47;1.83;;;;;;;;;;5014246;28;20555;-80
2022/09/28 10:21:52;;;;;;;2.67;1.50;;;;;;;;;;5031452;28;20513;-78
2022/09/28 10:24:26;;;;;;;2.20;1.73;;;;;;;;;;5031956;28;20409;-79
2022/09/28 10:26:54;;;;;;;2.80;1.88;;;;;;;;;;5013205;28;20836;-78
2022/09/28 10:29:23;;;;;;;2.38;1.65;;;;;;;;;;5032534;28;20133;-79
2022/09/28 10:31:50;;;;;;;2.33;1.33;;;;;;;;;;5031769;28;20132;-80
2022/09/28 10:34:25;;;;;;;2.05;1.10;;;;;;;;;;5013281;28;20045;-79
2022/09/28 10:36:54;;;;;;;1.40;0.90;;;;;;;;;;5044402;28;20041;-78
2022/09/28 10:39:29;;;;;;;2.20;0.90;;;;;;;;;;5053228;28;20093;-79
2022/09/28 10:41:57;;;;;;;1.30;0.80;;;;;;;;;;5043607;28;20351;-78
2022/09/28 10:44:24;;;;;;;1.75;1.08;;;;;;;;;;5013472;28;20063;-78
2022/09/28 10:46:55;;;;;;;2.55;1.23;;;;;;;;;;5012948;28;20060;-78
2022/09/28 10:49:22;;;;;;;1.75;1.20;;;;;;;;;;5029646;28;20042;-78
2022/09/28 10:51:50;;;;;;;2.65;1.45;;;;;;;;;;5031176;28;20050;-78
2022/09/28 10:54:21;;;;;;;2.83;1.20;;;;;;;;;;5014532;28;20050;-79
2022/09/28 10:56:48;;;;;;;4.10;1.55;;;;;;;;;;5029629;28;20049;-78
2022/09/28 10:59:27;;;;;;;2.90;0.82;;;;;;;;;;5046824;28;20059;-79
2022/09/28 11:01:57;;;;;;;0.75;0.57;;;;;;;;;;5050131;28;20049;-77
2022/09/28 11:04:28;;;;;;;2.95;0.70;;;;;;;;;;5049365;28;20049;-79
2022/09/28 11:06:57;;;;;;;0.43;0.40;;;;;;;;;;5049682;28;20501;-79
2022/09/28 11:09:27;;;;;;;0.80;0.40;;;;;;;;;;5050195;28;20056;-79
2022/09/28 11:12:00;;;;;;;0.60;0.30;;;;;;;;;;5035269;28;20248;-79
2022/09/28 11:14:34;;;;;;;0.65;0.35;;;;;;;;;;5053623;28;20064;-78
2022/09/28 11:17:23;;;;;;;1.30;0.50;;;;;;;;;;5057876;28;20049;-79
2022/09/28 11:19:51;;;;;;;1.23;0.50;;;;;;;;;;5052396;28;20045;-80
2022/09/28 11:22:20;;;;;;;1.52;0.73;;;;;;;;;;5059830;28;20045;-78
2022/09/28 11:24:47;;;;;;;1.15;0.50;;;;;;;;;;5073164;28;20072;-81
2022/09/28 11:27:24;;;;;;;1.42;0.70;;;;;;;;;;5038841;28;20080;-79
2022/09/28 11:29:57;;;;;;;2.00;0.70;;;;;;;;;;5052641;28;20048;-79
2022/09/28 11:32:29;;;;;;;1.70;0.50;;;;;;;;;;5051465;28;20131;-79
2022/09/28 11:34:57;;;;;;;1.50;0.60;;;;;;;;;;5033002;28;20049;-79
2022/09/28 11:37:34;;;;;;;0.82;0.65;;;;;;;;;;5050293;28;20052;-80
2022/09/28 11:40:00;;;;;;;1.00;0.70;;;;;;;;;;5034473;28;20059;-79
2022/09/28 11:42:29;;;;;;;2.65;0.80;;;;;;;;;;5050808;28;20217;-78
2022/09/28 11:45:16;;;;;;;1.80;0.60;;;;;;;;;;5052814;28;20059;-79
2022/09/28 11:47:56;;;;;;;1.30;0.70;;;;;;;;;;5048864;28;20135;-79
2022/09/28 11:50:23;;;;;;;0.82;0.68;;;;;;;;;;5051047;28;20056;-78
2022/09/28 11:52:53;;;;;;;1.30;0.80;;;;;;;;;;5050769;28;20124;-80
2022/09/28 11:55:19;;;;;;;2.20;1.05;;;;;;;;;;5034015;28;20420;-80
2022/09/28 11:57:52;;;;;;;2.45;1.35;;;;;;;;;;5044416;28;20056;-80
2022/09/28 12:00:19;;;;;;;3.67;1.67;;;;;;;;;;5013879;28;20076;-78
2022/09/28 12:03:02;;;;;;;8.63;1.50;;;;;;;;;;5030209;28;20136;-80
2022/09/28 12:05:32;;;;;;;5.47;1.48;;;;;;;;;;5031798;28;20383;-80
2022/09/28 12:08:13;;;;;;;3.50;1.20;;;;;;;;;;5012497;28;20141;-80
2022/09/28 12:11:00;;;;;;;5.68;1.20;;;;;;;;;;5013912;28;20068;-80
2022/09/28 12:13:28;;;;;;;3.05;1.15;;;;;;;;;;5013001;28;20068;-81
2022/09/28 12:15:58;;;;;;;2.55;1.17;;;;;;;;;;5031273;28;20455;-81
2022/09/28 12:18:53;;;;;;;2.28;0.90;;;;;;;;;;5028556;28;20056;-79
2022/09/28 12:21:29;;;;;;;1.50;0.75;;;;;;;;;;5034561;28;20049;-78
2022/09/28 12:23:55;;;;;;;;;;;;;;;;;;5020355;28;20112;-78
2022/09/28 12:26:37;;;;;;;1.90;1.00;;;;;;;;;;5035912;28;19931;-81
2022/09/28 12:29:15;;;;;;;1.77;1.08;;;;;;;;;;5034685;28;20053;-79
2022/09/28 12:32:02;;;;;;;2.42;1.30;;;;;;;;;;5033706;28;20052;-79
2022/09/28 12:34:28;;;;;;;1.80;1.10;;;;;;;;;;5033305;28;20049;-78
2022/09/28 12:37:04;;;;;;;2.83;1.33;;;;;;;;;;5033051;28;20517;-79
2022/09/28 12:39:30;;;;;;;;;;;;;;;;;;5016853;28;20353;-79
2022/09/28 12:42:31;;;;;;;2.28;0.80;;;;;;;;;;5033142;28;19949;-78
2022/09/28 12:44:57;;;;;;;3.55;0.98;;;;;;;;;;5034513;28;20076;-80
2022/09/28 12:47:34;;;;;;;3.53;1.15;;;;;;;;;;5033182;28;20080;-80
2022/09/28 12:50:00;;;;;;;1.33;0.90;;;;;;;;;;5032847;28;20056;-81
2022/09/28 12:52:56;;;;;;;2.13;1.10;;;;;;;;;;5018528;28;20049;-80
2022/09/28 12:55:35;;;;;;;2.72;1.00;;;;;;;;;;5017060;28;20053;-79
2022/09/28 12:58:16;;;;;;;1.40;0.80;;;;;;;;;;5036902;28;20045;-80
2022/09/28 13:00:52;;;;;;;1.88;1.00;;;;;;;;;;5053818;28;20061;-80
2022/09/28 13:03:27;;;;;;;0.80;0.70;;;;;;;;;;5051909;28;20092;-79
2022/09/28 13:05:57;;;;;;;;;;;;;;;;;;5054918;28;20140;-80
2022/09/28 13:08:42;;;;;;;1.27;0.70;;;;;;;;;;5052987;28;19947;-80
2022/09/28 13:11:40;;;;;;;2.17;0.77;;;;;;;;;;5053797;28;20378;-79
2022/09/28 13:14:18;;;;;;;2.92;0.93;;;;;;;;;;4965656;28;20066;-79
2022/09/28 13:17:07;;;;;;;0.90;0.70;;;;;;;;;;5035996;28;20052;-79
2022/09/28 13:19:41;;;;;;;2.40;1.00;;;;;;;;;;5052839;28;20070;-79
2022/09/28 13:22:26;;;;;;;1.35;0.98;;;;;;;;;;5024214;28;20292;-78
2022/09/28 13:24:54;;;;;;;2.03;1.00;;;;;;;;;;5006226;28;20432;-79
2022/09/28 13:27:47;;;;;;;1.70;1.10;;;;;;;;;;5020946;28;20053;-80
2022/09/28 13:30:14;;;;;;;3.28;1.48;;;;;;;;;;5004227;28;20060;-80
2022/09/28 13:32:41;;;;;;;1.65;1.20;;;;;;;;;;5026710;28;20050;-80
2022/09/28 13:35:14;;;;;;;1.75;1.10;;;;;;;;;;5024478;28;20132;-80
2022/09/28 13:37:41;;;;;;;3.28;1.50;;;;;;;;;;5026831;28;20050;-80
2022/09/28 13:40:07;;;;;;;2.15;1.30;;;;;;;;;;5006481;28;20072;-80
2022/09/28 13:42:37;;;;;;;2.08;1.10;;;;;;;;;;5002718;28;20141;-79
2022/09/28 13:45:26;;;;;;;1.95;1.10;;;;;;;;;;5005069;28;20449;-81
2022/09/28 13:48:13;;;;;;;3.72;1.50;;;;;;;;;;5023169;28;20055;-80
2022/09/28 13:50:49;;;;;;;5.13;1.30;;;;;;;;;;5023457;28;20050;-80
2022/09/28 13:53:15;;;;;;;;;;;;;;;;;;5029379;28;20046;-79
2022/09/28 13:55:41;;;;;;;;;;;;;;;;;;5032852;28;20035;-80
2022/09/28 13:58:16;;;;;;;1.85;1.40;;;;;;;;;;5045525;28;20177;-81
2022/09/28 14:00:49;;;;;;;2.78;1.40;;;;;;;;;;5048103;28;20128;-81
2022/09/28 14:03:34;;;;;;;3.03;1.20;;;;;;;;;;5017656;28;20052;-80
2022/09/28 14:06:09;;;;;;;2.17;1.23;;;;;;;;;;5022423;28;20092;-80
2022/09/28 14:08:37;;;;;;;2.35;1.27;;;;;;;;;;5022483;28;20060;-79
2022/09/28 14:11:23;;;;;;;2.97;1.30;;;;;;;;;;5005066;28;20310;-79
2022/09/28 14:14:00;;;;;;;4.15;1.40;;;;;;;;;;5022599;28;20056;-80
2022/09/28 14:16:29;;;;;;;5.82;1.35;;;;;;;;;;5022777;28;20049;-79
2022/09/28 14:18:59;;;;;;;2.22;1.00;;;;;;;;;;5021193;28;20494;-81
2022/09/28 14:21:37;;;;;;;3.80;1.05;;;;;;;;;;5021253;28;20050;-81
2022/09/28 14:24:16;;;;;;;1.70;0.90;;;;;;;;;;5020416;28;20513;-80
2022/09/28 14:26:45;;;;;;;2.42;1.27;;;;;;;;;;5021423;28;20046;-79
2022/09/28 14:29:28;;;;;;;3.58;1.20;;;;;;;;;;5022490;28;20475;-81
2022/09/28 14:31:57;;;;;;;4.57;1.33;;;;;;;;;;5021701;28;20152;-80
2022/09/28 14:34:37;;;;;;;3.10;1.30;;;;;;;;;;5023090;28;20462;-80
2022/09/28 14:43:12;;;;;;;5.53;1.95;;;;;;;;;;5019015;28;20049;-79
2022/09/28 14:45:43;;;;;;;4.00;2.22;;;;;;;;;;5020512;28;20052;-79
2022/09/28 14:48:14;;;;;;;6.97;2.17;;;;;;;;;;5020982;28;20046;-79
2022/09/28 14:50:40;;;;;;;4.85;2.15;;;;;;;;;;5020318;28;20528;-79
2022/09/28 14:53:12;;;;;;;6.47;1.98;;;;;;;;;;5019928;28;20053;-80
2022/09/28 14:55:46;;;;;;;5.05;1.58;;;;;;;;;;5021817;28;20111;-79
2022/09/28 14:58:18;;;;;;;1.33;1.10;;;;;;;;;;5024456;28;20391;-81
2022/09/28 15:00:46;;;;;;;1.88;1.10;;;;;;;;;;5026231;28;20041;-80
2022/09/28 15:03:13;;;;;;;1.38;0.90;;;;;;;;;;5016513;28;20075;-78
2022/09/28 15:05:45;;;;;;;3.33;1.15;;;;;;;;;;5021713;28;20056;-79
2022/09/28 15:08:12;;;;;;;3.38;1.20;;;;;;;;;;5021385;28;20056;-79
2022/09/28 15:10:44;;;;;;;2.00;1.02;;;;;;;;;;5022230;28;20421;-79
2022/09/28 15:13:26;;;;;;;3.00;1.10;;;;;;;;;;5020238;28;20046;-79
2022/09/28 15:15:55;;;;;;;3.15;1.20;;;;;;;;;;5021428;28;20497;-79
2022/09/28 15:18:26;;;;;;;3.03;1.27;;;;;;;;;;5018978;28;20591;-78
2022/09/28 15:20:53;;;;;;;2.90;1.50;;;;;;;;;;5011376;28;20056;-79